Time;durP1;ratioP1;P1;durP2;ratioP2;P2;SDS_P1;SDS_P2;PMS_P1;PMS_P2;Temp;Humidity;BMP_temperature;BMP_pressure;BME280_temperature;BME280_humidity;BME280_pressure;Samples;Min_cycle;Max_cycle;Signal;HPM_P1;HPM_P2
2021/04/05 00:01:52;;;;;;;7.03;3.80;;;;;;;4.21;45.71;99948.28;4385448;32;33751;-83
2021/04/05 00:04:20;;;;;;;6.60;3.85;;;;;;;4.33;45.38;99944.62;4386636;32;34847;-83
2021/04/05 00:06:47;;;;;;;6.35;3.90;;;;;;;4.59;44.79;99941.56;4399552;32;32797;-83
2021/04/05 00:09:14;;;;;;;8.88;4.93;;;;;;;4.57;44.75;99935.50;4390700;32;34652;-83
2021/04/05 00:11:42;;;;;;;6.28;4.37;;;;;;;4.64;44.65;99944.97;4390312;32;33468;-83
2021/04/05 00:14:09;;;;;;;7.60;4.45;;;;;;;4.69;44.68;99945.75;4388394;32;34740;-83
2021/04/05 00:16:36;;;;;;;14.95;5.45;;;;;;;4.48;45.92;99935.66;4389391;32;35332;-83
2021/04/05 00:19:04;;;;;;;9.23;4.10;;;;;;;4.57;45.49;99935.50;4388674;32;33404;-83
2021/04/05 00:21:31;;;;;;;5.35;4.35;;;;;;;4.63;45.38;99935.41;4381227;32;33298;-83
2021/04/05 00:24:05;;;;;;;9.48;5.12;;;;;;;4.61;45.14;99926.72;4396313;32;32320;-83
2021/04/05 00:26:32;;;;;;;8.13;5.25;;;;;;;4.71;44.83;99923.06;4407383;32;34238;-83
2021/04/05 00:29:00;;;;;;;6.97;4.68;;;;;;;4.66;45.13;99911.81;4393889;32;35549;-83
2021/04/05 00:31:27;;;;;;;9.38;5.05;;;;;;;4.63;45.21;99917.09;4396448;32;35776;-84
2021/04/05 00:33:54;;;;;;;6.65;4.95;;;;;;;4.56;45.61;99912.88;4395443;32;34478;-83
2021/04/05 00:36:21;;;;;;;8.82;5.18;;;;;;;4.49;45.76;99911.25;4395189;32;33891;-83
2021/04/05 00:38:49;;;;;;;8.23;5.55;;;;;;;4.35;46.06;99907.09;4405699;32;34236;-83
2021/04/05 00:41:17;;;;;;;9.07;5.45;;;;;;;4.12;47.34;99917.91;4395374;32;35405;-82
2021/04/05 00:43:46;;;;;;;8.85;5.57;;;;;;;4.33;46.81;99911.50;4419142;32;34601;-83
2021/04/05 00:46:19;;;;;;;8.73;4.78;;;;;;;4.45;46.17;99909.56;4382176;32;35023;-83
2021/04/05 00:48:49;;;;;;;7.15;5.15;;;;;;;4.46;46.09;99911.28;4395424;32;34404;-83
2021/04/05 00:51:22;;;;;;;8.77;4.87;;;;;;;4.54;45.91;99909.41;4396070;32;34846;-82
2021/04/05 00:53:50;;;;;;;7.70;5.03;;;;;;;4.00;47.71;99906.81;4395444;32;33847;-82
2021/04/05 00:56:20;;;;;;;10.15;5.70;;;;;;;4.34;46.67;99901.91;4421607;32;34142;-83
2021/04/05 00:58:48;;;;;;;8.52;5.12;;;;;;;4.28;46.54;99902.87;4408717;32;34670;-82
2021/04/05 01:01:21;;;;;;;10.98;5.45;;;;;;;4.21;46.72;99901.25;4408201;32;34520;-82
2021/04/05 01:03:49;;;;;;;6.75;4.65;;;;;;;3.99;47.67;99900.72;4393350;32;34288;-82
2021/04/05 01:06:31;;;;;;;8.15;4.85;;;;;;;3.82;48.39;99897.50;4405394;32;33725;-83
2021/04/05 01:08:59;;;;;;;7.68;4.35;;;;;;;3.83;48.08;99899.22;4406676;32;33387;-83
2021/04/05 01:11:28;;;;;;;5.85;4.35;;;;;;;4.10;47.21;99887.50;4406824;32;33745;-83
2021/04/05 01:13:56;;;;;;;9.23;4.60;;;;;;;4.18;46.65;99890.84;4391598;32;33647;-82
2021/04/05 01:16:28;;;;;;;9.18;4.62;;;;;;;3.87;47.71;99885.22;4406611;32;33970;-83
2021/04/05 01:18:58;;;;;;;6.28;4.25;;;;;;;3.68;47.66;99889.00;4395433;32;33610;-83
2021/04/05 01:21:25;;;;;;;7.35;4.90;;;;;;;3.54;48.07;99887.44;4394857;32;34678;-83
2021/04/05 01:23:54;;;;;;;7.15;4.28;;;;;;;3.83;47.29;99884.41;4407851;32;33822;-82
2021/04/05 01:26:22;;;;;;;10.57;5.32;;;;;;;3.94;46.83;99886.87;4377004;32;33914;-82
2021/04/05 01:28:49;;;;;;;9.18;5.22;;;;;;;3.85;46.83;99893.09;4401319;32;33941;-82
2021/04/05 01:31:16;;;;;;;7.57;4.82;;;;;;;3.88;46.75;99881.72;4407014;32;33491;-83
2021/04/05 01:33:44;;;;;;;10.13;4.62;;;;;;;3.97;46.13;99885.94;4393004;32;33719;-82
2021/04/05 01:36:16;;;;;;;8.88;5.37;;;;;;;3.85;46.57;99882.66;4393079;32;34471;-82
2021/04/05 01:38:49;;;;;;;10.10;4.47;;;;;;;4.01;45.98;99883.28;4395128;32;35392;-82
2021/04/05 01:41:25;;;;;;;7.57;4.30;;;;;;;3.78;45.95;99874.91;4393310;32;33989;-82
2021/04/05 01:43:52;;;;;;;6.50;4.55;;;;;;;4.00;45.63;99875.47;4394167;32;33619;-82
2021/04/05 01:46:21;;;;;;;8.88;4.35;;;;;;;3.98;45.45;99861.53;4392219;32;33710;-83
2021/04/05 01:48:48;;;;;;;9.75;4.70;;;;;;;4.11;45.16;99863.94;4393992;32;33426;-82
2021/04/05 01:51:23;;;;;;;9.10;4.97;;;;;;;4.07;45.39;99861.41;4398263;32;34643;-83
2021/04/05 01:53:51;;;;;;;7.57;4.85;;;;;;;4.10;45.33;99867.44;4380760;32;32621;-82
2021/04/05 01:56:19;;;;;;;6.70;4.35;;;;;;;4.07;45.26;99867.47;4404728;32;33019;-82
2021/04/05 01:58:49;;;;;;;7.37;4.65;;;;;;;3.93;46.29;99873.81;4403557;32;34227;-82
2021/04/05 02:01:19;;;;;;;8.90;5.20;;;;;;;3.83;46.59;99871.34;4395252;32;32216;-82
2021/04/05 02:03:47;;;;;;;10.30;4.78;;;;;;;3.89;46.29;99869.53;4381711;32;34485;-82
2021/04/05 02:06:19;;;;;;;6.93;4.57;;;;;;;3.60;47.27;99871.69;4394040;32;35134;-82
2021/04/05 02:08:46;;;;;;;10.10;5.10;;;;;;;3.84;46.67;99866.97;4406199;32;33873;-83
2021/04/05 02:11:36;;;;;;;6.45;4.35;;;;;;;3.98;45.94;99864.16;4394212;32;34787;-82
2021/04/05 02:14:06;;;;;;;8.05;4.65;;;;;;;3.49;47.07;99863.16;4406094;32;35011;-82
2021/04/05 02:16:33;;;;;;;8.57;5.15;;;;;;;3.53;47.28;99853.53;4398690;32;33210;-82
2021/04/05 02:19:01;;;;;;;5.78;4.20;;;;;;;3.61;47.41;99841.25;4395103;32;34482;-82
2021/04/05 02:21:29;;;;;;;8.18;4.97;;;;;;;3.73;47.03;99851.47;4396292;32;34846;-82
2021/04/05 02:24:02;;;;;;;7.53;5.45;;;;;;;3.73;46.98;99841.03;4396448;32;33709;-82
2021/04/05 02:26:31;;;;;;;9.82;4.93;;;;;;;3.37;48.55;99847.69;4419178;32;33844;-82
2021/04/05 02:29:00;;;;;;;9.68;5.22;;;;;;;3.52;47.89;99847.44;4408145;32;35734;-82
2021/04/05 02:31:29;;;;;;;6.70;4.45;;;;;;;3.64;47.30;99841.16;4396193;32;34284;-82
2021/04/05 02:34:06;;;;;;;9.63;5.50;;;;;;;3.56;47.92;99843.03;4398291;32;33742;-84
2021/04/05 02:36:34;;;;;;;8.48;5.03;;;;;;;3.51;48.10;99837.91;4409434;32;35001;-83
2021/04/05 02:39:07;;;;;;;8.85;5.35;;;;;;;3.57;47.63;99823.88;4407697;32;34417;-83
2021/04/05 02:41:39;;;;;;;8.88;5.62;;;;;;;3.33;48.53;99828.56;4400105;32;35331;-83
2021/04/05 02:44:07;;;;;;;12.40;5.20;;;;;;;3.48;48.02;99814.44;4406131;32;35235;-83
2021/04/05 02:46:37;;;;;;;9.88;5.30;;;;;;;3.45;47.88;99821.44;4408807;32;34048;-83
2021/04/05 02:49:09;;;;;;;7.53;4.72;;;;;;;3.39;48.08;99809.34;4394822;32;34389;-83
2021/04/05 02:51:43;;;;;;;;;;;;;;;3.33;48.33;99812.91;4407166;32;33224;-83
2021/04/05 02:54:11;;;;;;;8.85;5.60;;;;;;;3.47;47.83;99804.88;4394454;32;33376;-84
2021/04/05 02:56:43;;;;;;;8.17;4.60;;;;;;;3.52;47.55;99810.03;4402027;32;32547;-83
2021/04/05 02:59:10;;;;;;;9.52;5.47;;;;;;;3.36;48.44;99816.34;4400497;32;33595;-82
2021/04/05 03:01:39;;;;;;;8.57;6.00;;;;;;;3.40;48.44;99805.00;4396633;32;34395;-82
2021/04/05 03:04:07;;;;;;;11.07;5.57;;;;;;;3.39;48.20;99811.09;4403917;32;34843;-84
2021/04/05 03:06:34;;;;;;;10.25;5.72;;;;;;;3.27;48.73;99812.97;4396117;32;35037;-83
2021/04/05 03:09:05;;;;;;;10.65;5.72;;;;;;;3.33;48.51;99812.91;4420581;32;34733;-83
2021/04/05 03:11:35;;;;;;;8.52;5.37;;;;;;;3.31;48.31;99803.37;4408575;32;33556;-82
2021/04/05 03:14:04;;;;;;;7.57;4.97;;;;;;;3.41;48.09;99806.72;4396295;32;33229;-83
2021/04/05 03:16:32;;;;;;;11.90;6.28;;;;;;;3.36;48.34;99817.22;4407050;32;34782;-82
2021/04/05 03:19:02;;;;;;;11.20;6.03;;;;;;;3.38;48.16;99807.62;4408712;32;33467;-82
2021/04/05 03:21:30;;;;;;;12.55;6.28;;;;;;;3.44;47.98;99801.44;4396437;32;35601;-83
2021/04/05 03:24:00;;;;;;;11.12;6.03;;;;;;;3.34;48.05;99791.16;4396115;32;35390;-82
2021/04/05 03:26:28;;;;;;;8.05;4.97;;;;;;;2.97;49.46;99795.13;4407844;32;32876;-83
2021/04/05 03:28:55;;;;;;;8.65;5.37;;;;;;;3.25;48.40;99783.44;4393718;32;34834;-82
2021/04/05 03:31:25;;;;;;;9.98;5.62;;;;;;;3.15;48.55;99789.69;4392494;32;33737;-82
2021/04/05 03:34:21;;;;;;;8.60;5.05;;;;;;;3.15;49.13;99779.25;4395851;32;33756;-82
2021/04/05 03:36:57;;;;;;;8.93;4.93;;;;;;;2.92;49.66;99774.34;4413158;32;34769;-82
2021/04/05 03:39:25;;;;;;;8.55;4.82;;;;;;;3.09;49.36;99758.47;4407918;32;33666;-82
2021/04/05 03:42:13;;;;;;;9.13;5.28;;;;;;;3.18;48.89;99758.34;4394787;32;35045;-82
2021/04/05 03:44:48;;;;;;;9.30;4.85;;;;;;;2.95;49.62;99755.19;4407250;32;34605;-82
2021/04/05 03:47:42;;;;;;;9.45;5.20;;;;;;;3.17;48.78;99750.50;4420538;32;32876;-82
2021/04/05 03:50:25;;;;;;;9.68;5.07;;;;;;;3.03;49.39;99748.09;4395486;32;32971;-82
2021/04/05 03:52:55;;;;;;;;;;;;;;;3.11;49.12;99748.87;4406424;32;35958;-82
2021/04/05 03:55:26;;;;;;;7.95;4.75;;;;;;;2.99;49.14;99751.63;4421289;32;34254;-82
2021/04/05 03:57:56;;;;;;;7.25;5.03;;;;;;;2.86;49.62;99747.50;4394312;32;32894;-82
2021/04/05 04:00:28;;;;;;;10.60;5.80;;;;;;;2.87;49.58;99751.81;4395150;32;34585;-82
2021/04/05 04:02:56;;;;;;;8.50;4.97;;;;;;;2.74;50.12;99743.28;4393035;32;33792;-83
2021/04/05 04:05:53;;;;;;;8.50;5.10;;;;;;;2.73;49.62;99739.81;4395789;32;34428;-82
2021/04/05 04:08:40;;;;;;;10.75;5.20;;;;;;;2.63;49.91;99739.97;4409558;32;32684;-82
2021/04/05 04:11:07;;;;;;;7.72;5.18;;;;;;;2.63;50.45;99733.00;4407907;32;33335;-82
2021/04/05 04:13:55;;;;;;;8.98;5.40;;;;;;;2.50;50.79;99728.81;4394521;32;34091;-82
2021/04/05 04:16:23;;;;;;;10.98;5.55;;;;;;;2.70;50.40;99721.59;4393770;32;33739;-82
2021/04/05 04:18:51;;;;;;;10.77;5.10;;;;;;;2.85;50.07;99724.88;4393920;32;34088;-82
2021/04/05 04:21:19;;;;;;;11.38;5.47;;;;;;;2.71;50.10;99714.66;4405176;32;34088;-82
2021/04/05 04:23:47;;;;;;;9.73;4.72;;;;;;;2.58;50.71;99719.16;4391952;32;34869;-82
2021/04/05 04:26:14;;;;;;;11.38;5.32;;;;;;;2.61;50.76;99718.25;4391365;32;34568;-82
2021/04/05 04:28:43;;;;;;;9.10;5.05;;;;;;;2.59;51.22;99726.09;4381049;32;35429;-83
2021/04/05 04:31:11;;;;;;;7.87;5.37;;;;;;;2.67;51.07;99724.25;4398910;32;35774;-82
2021/04/05 04:33:41;;;;;;;8.82;5.50;;;;;;;2.75;50.35;99719.81;4382018;32;34277;-82
2021/04/05 04:36:08;;;;;;;12.32;5.55;;;;;;;2.73;50.81;99713.75;4398785;32;34419;-82
2021/04/05 04:38:35;;;;;;;8.23;5.15;;;;;;;2.88;50.30;99707.44;4382399;32;33875;-83
2021/04/05 04:41:03;;;;;;;8.07;5.03;;;;;;;2.67;50.83;99724.25;4385521;32;35773;-83
2021/04/05 04:43:30;;;;;;;7.60;5.55;;;;;;;2.70;51.33;99726.81;4408283;32;34728;-83
2021/04/05 04:46:04;;;;;;;7.82;5.30;;;;;;;2.78;51.07;99711.94;4408432;32;34452;-83
2021/04/05 04:48:31;;;;;;;12.32;7.35;;;;;;;2.94;50.52;99714.31;4396297;32;32621;-83
2021/04/05 04:50:59;;;;;;;10.13;6.15;;;;;;;2.83;50.69;99709.25;4409793;32;34647;-83
2021/04/05 04:53:26;;;;;;;14.38;8.27;;;;;;;2.59;51.88;99718.28;4405410;32;33533;-83
2021/04/05 04:55:53;;;;;;;13.85;7.80;;;;;;;2.94;51.37;99709.09;4408421;32;33479;-83
2021/04/05 04:58:22;;;;;;;18.77;7.90;;;;;;;2.89;50.94;99718.75;4394975;32;32918;-83
2021/04/05 05:00:49;;;;;;;15.60;7.82;;;;;;;2.79;51.79;99713.66;4419363;32;33673;-83
2021/04/05 05:03:17;;;;;;;13.62;7.47;;;;;;;2.94;52.92;99714.31;4405056;32;35332;-83
2021/04/05 05:05:44;;;;;;;16.50;6.90;;;;;;;2.94;52.07;99709.09;4395043;32;33528;-82
2021/04/05 05:08:11;;;;;;;13.62;7.35;;;;;;;2.94;51.21;99702.13;4380963;32;34127;-83
2021/04/05 05:10:39;;;;;;;14.15;7.93;;;;;;;3.17;51.31;99699.19;4393632;32;35590;-82
2021/04/05 05:13:06;;;;;;;18.52;8.90;;;;;;;3.39;51.41;99694.50;4398762;32;35189;-82
2021/04/05 05:15:34;;;;;;;16.90;8.73;;;;;;;3.27;51.14;99692.94;4405528;32;34769;-83
2021/04/05 05:18:04;;;;;;;17.10;8.10;;;;;;;3.28;51.56;99702.53;4407061;32;34652;-82
2021/04/05 05:20:32;;;;;;;15.63;7.65;;;;;;;3.47;51.45;99704.84;4396653;32;33951;-83
2021/04/05 05:23:01;;;;;;;15.38;8.30;;;;;;;3.58;50.60;99705.50;4397672;32;34298;-82
2021/04/05 05:25:30;;;;;;;17.77;9.45;;;;;;;3.78;52.11;99703.41;4405695;32;34709;-83
2021/04/05 05:28:03;;;;;;;20.10;9.00;;;;;;;3.62;52.02;99701.97;4409057;32;33982;-83
2021/04/05 05:30:30;;;;;;;18.67;8.45;;;;;;;3.62;51.75;99695.87;4400844;32;33545;-83
2021/04/05 05:33:01;;;;;;;19.55;8.40;;;;;;;3.76;50.50;99697.38;4394534;32;33221;-83
2021/04/05 05:35:28;;;;;;;16.73;8.85;;;;;;;4.22;49.68;99685.19;4393660;32;35626;-83
2021/04/05 05:38:14;;;;;;;14.32;8.38;;;;;;;4.40;48.17;99686.56;4393231;32;34158;-82
2021/04/05 05:40:45;;;;;;;13.32;7.22;;;;;;;4.59;47.64;99678.31;4410093;32;33481;-82
2021/04/05 05:43:30;;;;;;;16.80;7.47;;;;;;;4.57;48.40;99676.62;4410105;32;34884;-83
2021/04/05 05:46:22;;;;;;;16.73;8.35;;;;;;;4.71;48.04;99685.03;4406532;32;34850;-83
2021/04/05 05:48:49;;;;;;;15.32;7.90;;;;;;;4.79;48.23;99680.47;4419695;32;34214;-85
2021/04/05 05:51:51;;;;;;;12.77;7.62;;;;;;;4.92;49.45;99686.31;4407957;32;34539;-83
2021/04/05 05:54:46;;;;;;;17.30;9.38;;;;;;;5.08;48.13;99676.34;4391290;32;33426;-89
2021/04/05 05:57:36;;;;;;;35.25;16.12;;;;;;;5.29;47.33;99681.09;4408990;32;34526;-89
2021/04/05 06:00:20;;;;;;;22.58;11.65;;;;;;;5.35;46.08;99670.44;4397013;32;33211;-86
2021/04/05 06:03:08;;;;;;;22.87;10.85;;;;;;;5.40;46.51;99672.97;4405225;32;32320;-86
2021/04/05 06:06:04;;;;;;;12.75;8.32;;;;;;;5.46;46.24;99669.31;4384299;32;35401;-86
2021/04/05 06:08:39;;;;;;;14.07;7.82;;;;;;;5.63;47.35;99661.91;4407826;32;33911;-86
2021/04/05 06:11:17;;;;;;;13.98;7.60;;;;;;;5.89;45.90;99656.00;4405308;32;33635;-86
2021/04/05 06:14:08;;;;;;;15.05;7.62;;;;;;;6.30;43.92;99656.63;4413554;32;35599;-84
2021/04/05 06:16:45;;;;;;;13.23;7.93;;;;;;;6.24;46.01;99636.69;4409680;32;33571;-86
2021/04/05 06:19:45;;;;;;;9.05;4.07;;;;;;;6.73;45.15;99629.97;4394738;32;34569;-86
2021/04/05 06:22:37;;;;;;;6.78;3.25;;;;;;;6.48;44.53;99629.00;4417158;32;33890;-88
2021/04/05 06:25:18;;;;;;;5.95;4.10;;;;;;;6.73;44.67;99624.72;4421363;32;33966;-81
2021/04/05 06:27:53;;;;;;;3.90;2.97;;;;;;;6.73;43.69;99616.84;4408326;32;34606;-82
2021/04/05 06:30:59;;;;;;;6.87;3.20;;;;;;;7.05;43.22;99609.75;4384199;32;34473;-82
2021/04/05 06:33:36;;;;;;;5.53;3.25;;;;;;;7.61;43.07;99607.00;4396982;32;32748;-84
2021/04/05 06:36:12;;;;;;;7.30;3.08;;;;;;;7.88;41.02;99607.78;4412363;32;34366;-84
2021/04/05 06:38:46;;;;;;;3.55;2.70;;;;;;;7.80;41.71;99605.44;4421156;32;34537;-84
2021/04/05 06:41:34;;;;;;;3.65;2.55;;;;;;;8.08;40.82;99604.44;4394352;32;35344;-84
2021/04/05 06:44:02;;;;;;;5.35;2.95;;;;;;;8.07;40.16;99584.28;4392405;32;35155;-84
2021/04/05 06:46:29;;;;;;;6.18;2.87;;;;;;;7.73;41.23;99584.66;4417237;32;32846;-84
2021/04/05 06:49:13;;;;;;;4.80;2.65;;;;;;;8.50;39.73;99588.84;4419161;32;33907;-84
2021/04/05 06:51:59;;;;;;;5.43;2.90;;;;;;;8.17;40.19;99583.06;4420339;32;33482;-83
2021/04/05 06:54:54;;;;;;;5.10;3.75;;;;;;;8.11;39.87;99578.00;4422701;32;33325;-83
2021/04/05 06:57:33;;;;;;;5.97;3.15;;;;;;;8.33;39.84;99573.66;4409299;32;33030;-83
2021/04/05 07:00:05;;;;;;;6.05;4.05;;;;;;;7.91;40.73;99581.37;4407294;32;33468;-84
2021/04/05 07:03:01;;;;;;;6.80;4.53;;;;;;;8.50;39.93;99574.81;4395422;32;34534;-83
2021/04/05 07:06:05;;;;;;;9.18;5.00;;;;;;;8.50;39.59;99570.44;4419249;32;33335;-83
2021/04/05 07:08:33;;;;;;;9.90;4.85;;;;;;;8.25;40.54;99580.13;4401262;32;34611;-83
2021/04/05 07:11:17;;;;;;;12.57;4.55;;;;;;;8.36;40.91;99577.97;4422724;32;34691;-83
2021/04/05 07:13:48;;;;;;;7.53;5.00;;;;;;;8.68;40.35;99574.97;4395696;32;34081;-82
2021/04/05 07:16:28;;;;;;;7.45;4.18;;;;;;;8.77;41.27;99571.09;4420620;32;34051;-82
2021/04/05 07:19:08;;;;;;;10.77;4.75;;;;;;;8.35;41.60;99566.56;4408544;32;34346;-82
2021/04/05 07:21:42;;;;;;;7.87;4.72;;;;;;;8.63;41.49;99565.53;4408213;32;33522;-81
2021/04/05 07:24:24;;;;;;;6.32;4.07;;;;;;;8.49;42.51;99559.94;4391572;32;33078;-82
2021/04/05 07:27:02;;;;;;;11.40;5.12;;;;;;;8.59;42.65;99556.91;4408231;32;34093;-82
2021/04/05 07:30:22;;;;;;;7.95;4.95;;;;;;;8.52;44.74;99552.81;4406768;32;34944;-82
2021/04/05 07:33:05;;;;;;;6.28;4.32;;;;;;;8.86;43.79;99552.31;4394346;32;33769;-82
2021/04/05 07:35:37;;;;;;;7.68;5.07;;;;;;;8.89;44.05;99554.81;4385551;32;33968;-82
2021/04/05 07:38:19;;;;;;;7.55;4.95;;;;;;;8.90;44.52;99548.63;4381638;32;34643;-82
2021/04/05 07:40:52;;;;;;;7.90;4.53;;;;;;;9.38;43.62;99542.22;4408225;32;34256;-82
2021/04/05 07:43:56;;;;;;;6.80;3.87;;;;;;;9.40;43.48;99537.78;4396119;32;34025;-82
2021/04/05 07:46:34;;;;;;;6.82;3.85;;;;;;;9.69;42.13;99533.00;4404226;32;34804;-83
2021/04/05 07:49:24;;;;;;;6.00;3.58;;;;;;;9.89;41.30;99535.59;4411788;32;33156;-82
2021/04/05 07:51:56;;;;;;;7.43;3.92;;;;;;;9.76;41.57;99537.06;4406968;32;33614;-83
2021/04/05 07:54:27;;;;;;;5.72;3.92;;;;;;;9.81;41.20;99524.53;4399215;32;33738;-83
2021/04/05 07:57:05;;;;;;;9.02;3.40;;;;;;;10.15;40.57;99515.06;4406522;32;33397;-83
2021/04/05 07:59:32;;;;;;;6.53;4.10;;;;;;;10.82;40.17;99508.38;4415614;32;32813;-83
2021/04/05 08:02:11;;;;;;;6.15;3.70;;;;;;;11.03;39.32;99508.19;4417183;32;33427;-83
2021/04/05 08:05:18;;;;;;;8.60;4.35;;;;;;;11.41;38.29;99515.09;4419861;32;33640;-83
2021/04/05 08:07:56;;;;;;;4.28;3.17;;;;;;;10.81;38.38;99507.53;4416499;32;33413;-83
2021/04/05 08:10:23;;;;;;;6.10;3.58;;;;;;;11.30;38.16;99507.72;4420826;32;34762;-83
2021/04/05 08:12:55;;;;;;;5.07;3.12;;;;;;;10.95;38.38;99505.06;4419733;32;34309;-83
2021/04/05 08:15:38;;;;;;;5.80;3.08;;;;;;;11.48;37.02;99503.25;4396688;32;34718;-83
2021/04/05 08:18:05;;;;;;;;;;;;;;;12.53;35.90;99502.88;4420362;32;34631;-83
2021/04/05 08:20:38;;;;;;;3.47;2.78;;;;;;;12.71;35.22;99500.94;4406565;32;33615;-83
2021/04/05 08:23:14;;;;;;;5.65;3.45;;;;;;;12.49;35.32;99493.38;4394576;32;34629;-83
2021/04/05 08:25:57;;;;;;;4.03;3.20;;;;;;;12.38;35.27;99490.47;4391360;32;33184;-82
2021/04/05 08:28:42;;;;;;;4.30;2.53;;;;;;;12.24;35.02;99485.94;4383573;32;33613;-83
2021/04/05 08:31:22;;;;;;;5.72;2.47;;;;;;;12.42;33.88;99486.72;4396835;32;32906;-83
2021/04/05 08:34:08;;;;;;;5.60;2.40;;;;;;;12.37;33.23;99491.41;4390200;32;33350;-83
2021/04/05 08:36:50;;;;;;;2.97;1.87;;;;;;;12.27;32.85;99477.84;4379903;32;34822;-83
2021/04/05 08:39:36;;;;;;;3.55;2.20;;;;;;;13.11;32.32;99471.28;4404897;32;93813;-84
2021/04/05 08:42:10;;;;;;;4.03;2.10;;;;;;;13.32;32.56;99475.31;4394040;32;32899;-83
2021/04/05 08:44:37;;;;;;;3.75;2.53;;;;;;;12.70;32.22;99474.56;4407029;32;35195;-82
2021/04/05 08:47:08;;;;;;;3.87;2.12;;;;;;;12.50;31.72;99465.09;4388819;32;33917;-83
2021/04/05 08:49:36;;;;;;;3.80;2.12;;;;;;;12.72;32.04;99462.06;4397715;32;33922;-83
2021/04/05 08:52:08;;;;;;;4.80;1.92;;;;;;;12.89;31.19;99458.44;4383162;32;35115;-84
2021/04/05 08:54:40;;;;;;;5.15;1.90;;;;;;;13.11;30.75;99450.94;4398617;32;34633;-83
2021/04/05 08:57:09;;;;;;;3.20;1.85;;;;;;;13.19;29.55;99453.09;4398679;32;34435;-84
2021/04/05 09:00:02;;;;;;;3.40;2.50;;;;;;;13.12;30.00;99449.12;4398127;32;33361;-83
2021/04/05 09:02:45;;;;;;;2.47;1.67;;;;;;;13.57;29.33;99432.25;4394744;32;32916;-84
2021/04/05 09:05:16;;;;;;;;;;;;;;;13.61;28.72;99433.75;4380856;32;34033;-83
2021/04/05 09:08:01;;;;;;;3.10;2.58;;;;;;;13.00;29.37;99435.66;4395441;32;32855;-82
2021/04/05 09:10:31;;;;;;;2.92;2.05;;;;;;;13.10;29.23;99419.19;4401778;32;33004;-83
2021/04/05 09:13:01;;;;;;;5.05;1.83;;;;;;;13.15;29.59;99417.13;4380252;32;34215;-82
2021/04/05 09:15:28;;;;;;;4.72;1.55;;;;;;;13.25;29.01;99411.22;4381707;32;32720;-83
2021/04/05 09:18:30;;;;;;;4.25;1.70;;;;;;;13.60;29.89;99410.00;4395111;32;33852;-83
2021/04/05 09:21:15;;;;;;;2.58;1.55;;;;;;;13.64;28.73;99414.16;4397005;32;33610;-82
2021/04/05 09:23:55;;;;;;;2.15;1.60;;;;;;;13.75;27.87;99412.53;4398734;32;33196;-82
2021/04/05 09:26:35;;;;;;;2.15;1.75;;;;;;;13.90;28.64;99402.75;4377329;32;34554;-83
2021/04/05 09:29:08;;;;;;;2.83;2.00;;;;;;;14.77;26.69;99398.87;4372982;32;34977;-83
2021/04/05 09:31:54;;;;;;;4.03;1.27;;;;;;;15.30;25.76;99383.72;4384992;32;33584;-85
2021/04/05 09:34:49;;;;;;;5.45;1.45;;;;;;;14.66;27.27;99380.97;4390846;32;34130;-83
2021/04/05 09:37:36;;;;;;;2.42;1.48;;;;;;;14.74;27.87;99376.00;4391579;32;34441;-84
2021/04/05 09:40:28;;;;;;;4.43;2.08;;;;;;;14.86;27.97;99366.38;4377954;32;34653;-85
2021/04/05 09:43:23;;;;;;;2.92;1.70;;;;;;;15.19;26.05;99365.84;4391098;32;33901;-85
2021/04/05 09:45:56;;;;;;;2.10;1.45;;;;;;;15.04;26.82;99358.91;4373639;32;34075;-85
2021/04/05 09:48:39;;;;;;;3.80;1.73;;;;;;;14.40;27.08;99352.63;4382950;32;34703;-84
2021/04/05 09:51:34;;;;;;;4.50;1.90;;;;;;;14.64;26.40;99350.16;4387608;32;34379;-85
2021/04/05 09:54:27;;;;;;;2.70;1.87;;;;;;;14.78;25.66;99342.09;4391898;32;33690;-85
2021/04/05 09:56:57;;;;;;;4.10;1.48;;;;;;;14.67;25.57;99334.88;4392003;32;33257;-84
2021/04/05 09:59:42;;;;;;;2.30;1.58;;;;;;;14.99;25.88;99335.31;4375279;32;33712;-84
2021/04/05 10:02:11;;;;;;;3.62;2.47;;;;;;;15.39;27.85;99321.88;4388862;32;33798;-84
2021/04/05 10:04:39;;;;;;;2.55;2.05;;;;;;;15.91;24.78;99320.81;4372099;32;34597;-85
2021/04/05 10:07:07;;;;;;;2.45;1.65;;;;;;;15.86;25.46;99312.31;4395489;32;34234;-84
2021/04/05 10:09:35;;;;;;;4.35;1.80;;;;;;;16.16;24.97;99311.00;4370531;32;33986;-85
2021/04/05 10:12:07;;;;;;;3.35;1.70;;;;;;;16.91;25.27;99302.66;4398762;32;34410;-84
2021/04/05 10:14:39;;;;;;;5.35;1.52;;;;;;;15.69;24.35;99302.03;4387525;32;35111;-84
2021/04/05 10:17:07;;;;;;;4.35;1.55;;;;;;;15.60;25.30;99301.69;4391749;32;33084;-85
2021/04/05 10:19:40;;;;;;;2.17;1.65;;;;;;;16.51;24.92;99295.03;4397378;32;33940;-84
2021/04/05 10:22:15;;;;;;;2.42;1.50;;;;;;;15.64;24.93;99301.53;4378849;32;35488;-85
2021/04/05 10:24:44;;;;;;;2.58;1.48;;;;;;;15.18;25.56;99299.44;4389793;32;33553;-84
2021/04/05 10:27:14;;;;;;;2.83;1.77;;;;;;;15.84;25.17;99285.78;4392134;32;34909;-84
2021/04/05 10:29:43;;;;;;;2.53;1.50;;;;;;;16.07;24.22;99281.44;4391843;32;33747;-84
2021/04/05 10:32:14;;;;;;;5.85;1.35;;;;;;;15.39;26.54;99279.31;4390347;32;33308;-85
2021/04/05 10:34:46;;;;;;;3.75;2.10;;;;;;;15.43;24.80;99267.50;4403499;32;33848;-84
2021/04/05 10:37:20;;;;;;;5.55;1.50;;;;;;;15.45;24.77;99283.34;4390541;32;33267;-84
2021/04/05 10:39:51;;;;;;;2.65;1.33;;;;;;;15.61;24.78;99276.78;4388751;32;33067;-84
2021/04/05 10:42:24;;;;;;;5.40;1.67;;;;;;;16.01;24.21;99259.75;4392350;32;33661;-84
2021/04/05 10:44:56;;;;;;;5.82;1.70;;;;;;;15.80;24.58;99264.81;4391454;32;33393;-84
2021/04/05 10:47:27;;;;;;;2.50;1.30;;;;;;;16.05;23.86;99259.41;4391419;32;33973;-84
2021/04/05 10:49:56;;;;;;;2.35;1.50;;;;;;;16.12;24.47;99252.63;4391163;32;35185;-84
2021/04/05 10:52:28;;;;;;;2.85;1.85;;;;;;;17.12;23.56;99227.12;4391353;32;32413;-84
2021/04/05 10:54:56;;;;;;;;;;;;;;;16.42;23.56;99227.28;4388785;32;33549;-84
2021/04/05 10:57:32;;;;;;;6.03;3.92;;;;;;;16.79;24.51;99224.47;4389527;32;33366;-84
2021/04/05 11:00:03;;;;;;;4.85;1.58;;;;;;;16.70;24.51;99212.66;4387990;32;33568;-84
2021/04/05 11:02:36;;;;;;;3.10;1.62;;;;;;;16.37;24.09;99208.13;4403169;32;33449;-89
2021/04/05 11:05:09;;;;;;;3.40;1.98;;;;;;;16.12;23.10;99206.50;4401516;32;34781;-84
2021/04/05 11:07:38;;;;;;;2.72;1.77;;;;;;;16.13;24.30;99206.38;4391431;32;34691;-84
2021/04/05 11:10:08;;;;;;;3.85;1.62;;;;;;;16.08;23.77;99203.22;4390999;32;33037;-84
2021/04/05 11:12:37;;;;;;;3.00;1.70;;;;;;;17.03;24.39;99195.00;4390747;32;34396;-84
2021/04/05 11:15:08;;;;;;;3.70;2.00;;;;;;;16.49;23.75;99191.22;4388207;32;33865;-84
2021/04/05 11:17:40;;;;;;;7.90;1.95;;;;;;;17.15;25.87;99170.87;4401643;32;33315;-84
2021/04/05 11:20:09;;;;;;;2.05;1.60;;;;;;;17.59;22.28;99171.72;4391121;32;34659;-84
2021/04/05 11:22:38;;;;;;;2.90;1.58;;;;;;;17.82;22.31;99150.31;4402608;32;33137;-84
2021/04/05 11:25:08;;;;;;;3.70;1.67;;;;;;;17.78;22.43;99148.88;4363581;32;34767;-84
2021/04/05 11:27:39;;;;;;;4.40;1.80;;;;;;;17.38;22.03;99152.16;4394358;32;34250;-83
2021/04/05 11:30:08;;;;;;;3.72;1.58;;;;;;;17.58;22.38;99151.34;4389484;32;34261;-83
2021/04/05 11:32:38;;;;;;;2.72;1.70;;;;;;;17.03;23.84;99134.50;4393552;32;34708;-85
2021/04/05 11:35:10;;;;;;;8.15;2.40;;;;;;;17.34;22.03;99124.03;4383712;32;34201;-84
2021/04/05 11:37:39;;;;;;;3.53;1.70;;;;;;;18.35;21.56;99104.81;4383154;32;32815;-84
2021/04/05 11:40:12;;;;;;;5.30;2.17;;;;;;;17.81;23.38;99100.56;4396553;32;33683;-84
2021/04/05 11:42:46;;;;;;;5.50;2.03;;;;;;;18.17;20.89;99101.87;4368526;32;34944;-84
2021/04/05 11:45:29;;;;;;;4.82;2.20;;;;;;;17.69;21.84;99096.19;4394977;32;32645;-83
2021/04/05 11:48:03;;;;;;;6.57;2.20;;;;;;;17.38;22.84;99090.78;4382607;32;33580;-83
2021/04/05 11:50:30;;;;;;;5.50;2.05;;;;;;;18.11;20.73;99089.06;4373091;32;35404;-83
2021/04/05 11:53:10;;;;;;;5.28;2.17;;;;;;;17.88;21.41;99091.03;4398508;32;35373;-83
2021/04/05 11:55:39;;;;;;;3.12;2.00;;;;;;;18.70;21.79;99077.66;4403858;32;34748;-83
2021/04/05 11:58:14;;;;;;;4.07;1.98;;;;;;;18.14;22.96;99092.31;4382647;32;35240;-83
2021/04/05 12:00:57;;;;;;;2.25;1.50;;;;;;;17.93;24.38;99083.47;4393095;32;35700;-84
2021/04/05 12:03:39;;;;;;;4.00;1.62;;;;;;;17.41;21.12;99085.16;4393235;32;33944;-84
2021/04/05 12:06:12;;;;;;;5.37;1.87;;;;;;;17.61;21.80;99068.34;4382362;32;36193;-84
2021/04/05 12:08:45;;;;;;;2.85;1.52;;;;;;;17.32;21.49;99076.09;4395599;32;33902;-84
2021/04/05 12:11:13;;;;;;;2.40;1.35;;;;;;;17.67;22.64;99064.31;4389983;32;35157;-83
2021/04/05 12:13:43;;;;;;;2.87;1.40;;;;;;;18.15;20.81;99048.59;4386705;32;33663;-83